Time;durP1;ratioP1;P1;durP2;ratioP2;P2;SDS_P1;SDS_P2;PMS_P1;PMS_P2;Temp;Humidity;BMP_temperature;BMP_pressure;BME280_temperature;BME280_humidity;BME280_pressure;Samples;Min_cycle;Max_cycle;Signal;HPM_P1;HPM_P2
2021/04/13 00:01:32;;;;;;;10.35;1.23;;;;;;;5.05;71.12;103121.22;5040233;28;20053;-49
2021/04/13 00:04:07;;;;;;;11.40;1.80;;;;;;;5.06;71.22;103121.03;5039388;28;20140;-54
2021/04/13 00:06:39;;;;;;;7.55;0.95;;;;;;;5.10;71.44;103113.16;5051213;28;20159;-50
2021/04/13 00:09:16;;;;;;;12.90;1.30;;;;;;;5.12;71.41;103125.75;5049136;28;20068;-51
2021/04/13 00:11:46;;;;;;;10.55;1.42;;;;;;;5.13;71.49;103121.91;5037687;28;20499;-50
2021/04/13 00:14:16;;;;;;;8.00;1.38;;;;;;;5.12;71.42;103117.44;5035450;28;20516;-52
2021/04/13 00:16:46;;;;;;;15.88;1.73;;;;;;;5.10;71.53;103124.25;5053175;28;20045;-54
2021/04/13 00:19:13;;;;;;;7.13;1.20;;;;;;;5.07;72.00;103119.97;5049209;28;20055;-49
2021/04/13 00:21:44;;;;;;;8.80;1.20;;;;;;;5.05;71.90;103124.84;5040092;28;20445;-51
2021/04/13 00:24:14;;;;;;;10.30;1.30;;;;;;;5.01;71.82;103125.47;5039142;28;20057;-49
2021/04/13 00:26:47;;;;;;;9.65;1.02;;;;;;;4.99;71.95;103128.47;5046586;28;20106;-54
2021/04/13 00:29:18;;;;;;;17.00;1.60;;;;;;;4.99;71.62;103125.69;5048482;28;20118;-51
2021/04/13 00:31:48;;;;;;;7.43;0.90;;;;;;;4.96;71.46;103128.88;5042965;28;20057;-47
2021/04/13 00:34:24;;;;;;;5.45;1.17;;;;;;;4.94;71.62;103130.16;5038042;28;20498;-47
2021/04/13 00:36:52;;;;;;;9.73;1.35;;;;;;;4.92;71.69;103123.97;5038499;28;20061;-47
2021/04/13 00:39:23;;;;;;;10.80;1.63;;;;;;;4.89;71.45;103139.06;5038106;28;20049;-48
2021/04/13 00:42:12;;;;;;;10.20;1.33;;;;;;;4.88;71.69;103130.97;5045370;28;20051;-51
2021/04/13 00:44:45;;;;;;;11.43;1.15;;;;;;;4.90;71.63;103129.69;5050647;28;20056;-48
2021/04/13 00:47:25;;;;;;;10.13;0.98;;;;;;;4.93;71.62;103133.97;5044963;28;20057;-49
2021/04/13 00:49:56;;;;;;;12.73;1.45;;;;;;;4.95;71.76;103126.31;5048110;28;20053;-49
2021/04/13 00:52:33;;;;;;;12.27;1.20;;;;;;;4.99;71.69;103127.63;5043056;28;20055;-49
2021/04/13 00:55:04;;;;;;;9.60;1.00;;;;;;;4.96;71.60;103123.34;5034553;28;20474;-53
2021/04/13 00:57:36;;;;;;;8.70;1.10;;;;;;;4.95;71.77;103127.16;5053739;28;20469;-49
2021/04/13 01:00:07;;;;;;;6.93;0.85;;;;;;;4.95;71.93;103120.78;5048869;28;20100;-52
2021/04/13 01:02:35;;;;;;;9.68;1.02;;;;;;;4.94;71.71;103127.38;5042139;28;20431;-53
2021/04/13 01:05:11;;;;;;;8.85;1.25;;;;;;;4.90;71.63;103124.16;5051338;28;20046;-48
2021/04/13 01:07:40;;;;;;;8.02;1.10;;;;;;;4.86;71.60;103117.31;5041905;28;20506;-48
2021/04/13 01:10:11;;;;;;;7.68;1.00;;;;;;;4.83;71.47;103121.34;5049690;28;20045;-51
2021/04/13 01:12:40;;;;;;;9.93;1.00;;;;;;;4.82;71.61;103127.09;5044460;28;20065;-49
2021/04/13 01:15:10;;;;;;;12.65;1.27;;;;;;;4.78;71.53;103126.69;5047661;28;20506;-49
2021/04/13 01:17:40;;;;;;;7.82;1.02;;;;;;;4.76;71.66;103122.41;5049423;28;20053;-47
2021/04/13 01:20:15;;;;;;;9.00;1.20;;;;;;;4.76;71.65;103125.16;5051963;28;20049;-49
2021/04/13 01:22:49;;;;;;;12.10;1.20;;;;;;;4.74;71.57;103133.66;5048160;28;20149;-49
2021/04/13 01:25:20;;;;;;;10.02;1.05;;;;;;;4.75;71.83;103129.00;5033418;28;20123;-50
2021/04/13 01:27:50;;;;;;;8.90;1.57;;;;;;;4.74;71.65;103128.13;5040940;28;20523;-52
2021/04/13 01:30:19;;;;;;;6.03;0.80;;;;;;;4.75;71.80;103127.06;5052372;28;20049;-47
2021/04/13 01:32:47;;;;;;;9.38;1.45;;;;;;;4.76;71.63;103131.56;5046334;28;20470;-47
2021/04/13 01:35:16;;;;;;;8.35;1.50;;;;;;;4.75;71.50;103126.22;5032041;28;20406;-50
2021/04/13 01:37:54;;;;;;;9.15;1.05;;;;;;;4.74;71.40;103135.56;5046619;28;20072;-50
2021/04/13 01:40:27;;;;;;;10.75;1.05;;;;;;;4.70;71.54;103132.38;5033130;28;20116;-49
2021/04/13 01:42:56;;;;;;;8.57;1.48;;;;;;;4.69;71.64;103130.66;5037934;28;20049;-51
2021/04/13 01:45:26;;;;;;;9.00;1.58;;;;;;;4.72;71.55;103134.94;5052638;28;20218;-50
2021/04/13 01:47:56;;;;;;;6.18;0.85;;;;;;;4.71;71.64;103136.84;5047676;28;20041;-49
2021/04/13 01:50:26;;;;;;;9.23;0.85;;;;;;;4.74;71.73;103132.81;5033052;28;20049;-48
2021/04/13 01:53:02;;;;;;;10.45;1.15;;;;;;;4.76;71.83;103139.84;5042940;28;20107;-52
2021/04/13 01:55:31;;;;;;;8.10;1.27;;;;;;;4.76;71.90;103141.75;5033367;28;20402;-48
2021/04/13 01:58:08;;;;;;;9.98;1.00;;;;;;;4.79;71.88;103138.59;5037269;28;20068;-48
2021/04/13 02:00:43;;;;;;;13.25;1.67;;;;;;;4.82;72.02;103140.91;5050917;28;20037;-47
2021/04/13 02:03:15;;;;;;;8.05;1.02;;;;;;;4.82;71.87;103141.78;5047274;28;20041;-51
2021/04/13 02:05:48;;;;;;;9.23;1.10;;;;;;;4.80;71.96;103143.03;5033585;28;20049;-51
2021/04/13 02:08:21;;;;;;;8.60;1.08;;;;;;;4.77;71.95;103147.09;5037183;28;20659;-50
2021/04/13 02:10:53;;;;;;;11.18;1.40;;;;;;;4.77;71.91;103143.47;5049941;28;20065;-48
2021/04/13 02:13:24;;;;;;;10.80;1.20;;;;;;;4.72;72.26;103146.84;5046025;28;20452;-49
2021/04/13 02:16:02;;;;;;;6.05;0.85;;;;;;;4.72;72.64;103143.22;5031839;28;20103;-47
2021/04/13 02:18:36;;;;;;;9.82;1.23;;;;;;;4.68;72.84;103151.06;5036638;28;21292;-49
2021/04/13 02:21:09;;;;;;;5.53;1.10;;;;;;;4.67;72.61;103141.06;5048775;28;20091;-45
2021/04/13 02:23:43;;;;;;;5.40;0.80;;;;;;;4.66;72.40;103155.09;5046974;28;20067;-47
2021/04/13 02:26:11;;;;;;;11.13;1.20;;;;;;;4.62;72.59;103151.03;5035783;28;20391;-45
2021/04/13 02:28:39;;;;;;;5.32;0.77;;;;;;;4.59;72.42;103155.06;5035981;28;20060;-47
2021/04/13 02:31:08;;;;;;;7.13;1.10;;;;;;;4.57;72.35;103161.84;5046617;28;20119;-49
2021/04/13 02:33:39;;;;;;;10.23;1.08;;;;;;;4.55;72.48;103161.22;5045425;28;20067;-50
2021/04/13 02:36:15;;;;;;;6.63;0.90;;;;;;;4.53;72.56;103166.06;5039270;28;20056;-50
2021/04/13 02:38:48;;;;;;;7.28;0.80;;;;;;;4.52;72.66;103165.22;5046600;28;20083;-50
2021/04/13 02:41:21;;;;;;;7.95;1.35;;;;;;;4.52;72.70;103165.22;5038225;28;20155;-47
2021/04/13 02:43:54;;;;;;;10.07;1.00;;;;;;;4.54;72.58;103163.13;5036584;28;20076;-47
2021/04/13 02:46:27;;;;;;;8.18;0.90;;;;;;;4.57;72.64;103159.09;5044153;28;20118;-51
2021/04/13 02:49:05;;;;;;;9.40;1.48;;;;;;;4.59;72.54;103171.66;5045800;28;20483;-48
2021/04/13 02:51:34;;;;;;;7.00;1.10;;;;;;;4.56;72.55;103169.31;5039181;28;20107;-50
2021/04/13 02:54:02;;;;;;;6.70;1.00;;;;;;;4.55;72.33;103173.13;5036219;28;20457;-49
2021/04/13 02:56:33;;;;;;;6.97;0.85;;;;;;;4.53;72.12;103168.84;5041913;28;20516;-49
2021/04/13 02:59:15;;;;;;;9.20;1.10;;;;;;;4.53;72.14;103163.31;5046518;28;20073;-50
2021/04/13 03:01:49;;;;;;;6.65;1.02;;;;;;;4.48;72.32;103167.53;5029795;28;20447;-50
2021/04/13 03:04:18;;;;;;;10.60;1.27;;;;;;;4.47;72.16;103165.81;5035927;28;20071;-45
2021/04/13 03:06:48;;;;;;;8.18;1.45;;;;;;;4.48;71.94;103167.53;5041597;28;20103;-46
2021/04/13 03:09:20;;;;;;;9.68;1.17;;;;;;;4.48;71.92;103164.78;5046327;28;20052;-47
2021/04/13 03:11:50;;;;;;;8.15;1.17;;;;;;;4.49;72.00;103172.00;5040197;28;20083;-48
2021/04/13 03:14:20;;;;;;;5.00;0.60;;;;;;;4.48;72.07;103170.31;5047925;28;20056;-47
2021/04/13 03:16:50;;;;;;;7.80;1.10;;;;;;;4.46;72.09;103172.41;5041623;28;20049;-47
2021/04/13 03:19:22;;;;;;;7.60;1.58;;;;;;;4.45;71.93;103169.84;5031310;28;20470;-45
2021/04/13 03:21:52;;;;;;;10.25;1.08;;;;;;;4.42;72.00;103168.34;5040050;28;20045;-48
2021/04/13 03:24:24;;;;;;;6.57;1.00;;;;;;;4.42;72.20;103164.72;5048880;28;20056;-47
2021/04/13 03:26:55;;;;;;;7.97;0.77;;;;;;;4.39;72.09;103166.00;5042262;28;20123;-50
2021/04/13 03:29:27;;;;;;;9.15;0.90;;;;;;;4.39;71.93;103159.63;5031840;28;20704;-48
2021/04/13 03:31:56;;;;;;;9.60;1.20;;;;;;;4.36;71.96;103160.00;5045437;28;20096;-47
2021/04/13 03:34:24;;;;;;;11.40;1.67;;;;;;;4.35;71.91;103167.44;5031254;28;20073;-51
2021/04/13 03:36:53;;;;;;;8.45;1.17;;;;;;;4.34;72.09;103168.50;5041666;28;20441;-46
2021/04/13 03:39:27;;;;;;;4.47;0.70;;;;;;;4.33;72.08;103165.94;5051031;28;20041;-48
2021/04/13 03:41:56;;;;;;;9.05;1.10;;;;;;;4.32;71.95;103173.38;5044303;28;20049;-50
2021/04/13 03:44:25;;;;;;;8.18;1.00;;;;;;;4.33;72.03;103175.09;5030901;28;20107;-45
2021/04/13 03:46:53;;;;;;;8.90;1.10;;;;;;;4.35;72.06;103174.88;5035693;28;20045;-49
2021/04/13 03:49:27;;;;;;;6.68;1.08;;;;;;;4.37;72.48;103168.09;5050829;28;20099;-44
2021/04/13 03:51:59;;;;;;;7.57;0.70;;;;;;;4.39;72.10;103176.19;5044861;28;20065;-49
2021/04/13 03:54:29;;;;;;;7.47;0.90;;;;;;;4.37;72.17;103181.06;5031806;28;20056;-49
2021/04/13 03:56:57;;;;;;;4.22;0.82;;;;;;;4.36;72.26;103182.97;5035444;28;20049;-47
2021/04/13 03:59:27;;;;;;;6.38;0.90;;;;;;;4.37;72.37;103178.31;5047940;28;20057;-47
2021/04/13 04:01:54;;;;;;;7.93;0.80;;;;;;;4.35;72.11;103178.50;5045129;28;20079;-46
2021/04/13 04:04:29;;;;;;;6.20;0.95;;;;;;;4.34;72.03;103179.56;5035077;28;20054;-45
2021/04/13 04:06:58;;;;;;;8.05;0.90;;;;;;;4.32;72.05;103180.81;5035058;28;20826;-50
2021/04/13 04:09:36;;;;;;;6.32;0.93;;;;;;;4.32;72.29;103178.91;5045534;28;20049;-48
2021/04/13 04:12:18;;;;;;;6.95;1.00;;;;;;;4.32;72.25;103180.81;5044843;28;20498;-47
2021/04/13 04:15:01;;;;;;;5.47;0.80;;;;;;;4.28;72.28;103179.50;5045203;28;20063;-45
2021/04/13 04:17:31;;;;;;;4.60;0.90;;;;;;;4.28;72.55;103185.03;5045437;28;20045;-46
2021/04/13 04:20:05;;;;;;;5.90;0.70;;;;;;;4.29;72.14;103186.75;5033320;28;20577;-45
2021/04/13 04:22:34;;;;;;;8.25;0.93;;;;;;;4.27;72.52;103192.47;5035125;28;20457;-45
2021/04/13 04:25:18;;;;;;;5.88;0.73;;;;;;;4.28;72.51;103191.41;5046132;28;20147;-48
2021/04/13 04:27:46;;;;;;;9.43;0.93;;;;;;;4.25;72.43;103191.81;5044068;28;20064;-48
2021/04/13 04:30:28;;;;;;;7.20;1.02;;;;;;;4.28;72.46;103196.09;5034461;28;20060;-47
2021/04/13 04:32:58;;;;;;;10.82;0.98;;;;;;;4.29;72.11;103197.78;5035195;28;20499;-49
2021/04/13 04:35:38;;;;;;;9.70;1.45;;;;;;;4.33;72.09;103199.09;5046172;28;20418;-45
2021/04/13 04:38:23;;;;;;;5.93;0.80;;;;;;;4.33;71.92;103199.97;5039800;28;20386;-44
2021/04/13 04:41:00;;;;;;;6.72;1.20;;;;;;;4.34;71.69;103203.59;5051214;28;20060;-45
2021/04/13 04:43:44;;;;;;;7.75;0.80;;;;;;;4.35;71.83;103205.28;5043047;28;20037;-46
2021/04/13 04:46:29;;;;;;;6.53;0.82;;;;;;;4.33;71.63;103205.50;5052874;28;20504;-44
2021/04/13 04:49:01;;;;;;;5.75;1.00;;;;;;;4.32;71.52;103213.97;5047398;28;20053;-46
2021/04/13 04:51:28;;;;;;;9.25;0.80;;;;;;;4.34;71.07;103212.72;5033475;28;20446;-49
2021/04/13 04:53:55;;;;;;;5.80;0.80;;;;;;;4.36;70.90;103215.28;5044133;28;20049;-45
2021/04/13 04:56:22;;;;;;;9.52;0.90;;;;;;;4.37;70.78;103217.88;5034925;28;20053;-48
2021/04/13 04:58:49;;;;;;;3.67;0.75;;;;;;;4.39;70.48;103221.28;5038317;28;20450;-45
2021/04/13 05:01:16;;;;;;;6.80;0.80;;;;;;;4.40;70.54;103228.50;5049097;28;20456;-45
2021/04/13 05:03:43;;;;;;;5.18;0.80;;;;;;;4.40;70.53;103217.44;5048641;28;20390;-47
2021/04/13 05:06:11;;;;;;;8.45;1.02;;;;;;;4.41;70.37;103218.28;5039972;28;20060;-47
2021/04/13 05:08:38;;;;;;;9.82;1.05;;;;;;;4.44;70.47;103226.19;5037668;28;20478;-45
2021/04/13 05:11:09;;;;;;;9.15;0.80;;;;;;;4.44;70.55;103224.28;5045450;28;20096;-46
2021/04/13 05:13:36;;;;;;;5.50;0.98;;;;;;;4.47;70.35;103226.66;5047375;28;20107;-48
2021/04/13 05:16:04;;;;;;;8.27;1.00;;;;;;;4.52;70.42;103230.72;5033046;28;20053;-48
2021/04/13 05:18:31;;;;;;;6.88;0.90;;;;;;;4.55;70.22;103233.94;5036800;28;20067;-47
2021/04/13 05:20:58;;;;;;;6.38;1.10;;;;;;;4.58;69.79;103238.22;5044634;28;20064;-47
2021/04/13 05:23:25;;;;;;;7.93;0.88;;;;;;;4.62;69.45;103242.28;5034317;28;20128;-48
2021/04/13 05:25:53;;;;;;;5.63;0.82;;;;;;;4.67;69.35;103242.53;5041836;28;20457;-51
2021/04/13 05:28:21;;;;;;;7.40;0.88;;;;;;;4.70;69.41;103245.75;5052341;28;20045;-50
2021/04/13 05:30:50;;;;;;;8.50;0.95;;;;;;;4.73;69.17;103244.50;5040986;28;20056;-48
2021/04/13 05:33:19;;;;;;;8.52;1.13;;;;;;;4.75;69.42;103247.91;5053628;28;20052;-58
2021/04/13 05:35:46;;;;;;;4.20;1.00;;;;;;;4.78;69.37;103248.38;5045777;28;20059;-47
2021/04/13 05:38:17;;;;;;;4.68;0.65;;;;;;;4.83;69.27;103253.28;5049868;28;20049;-45
2021/04/13 05:40:44;;;;;;;7.32;1.35;;;;;;;4.88;68.83;103259.06;5047416;28;20514;-48
2021/04/13 05:43:14;;;;;;;5.43;0.98;;;;;;;4.98;68.49;103261.47;5032987;28;20047;-45
2021/04/13 05:45:44;;;;;;;6.68;1.05;;;;;;;5.06;68.11;103258.53;5046480;28;20053;-46
2021/04/13 05:48:12;;;;;;;6.20;0.80;;;;;;;5.11;67.81;103270.72;5033937;28;20165;-48
2021/04/13 05:50:42;;;;;;;7.13;0.90;;;;;;;5.16;67.58;103270.09;5035754;28;20053;-46
2021/04/13 05:53:10;;;;;;;5.57;0.60;;;;;;;5.20;67.68;103275.00;5050297;28;20048;-47
2021/04/13 05:55:37;;;;;;;9.30;0.90;;;;;;;5.26;67.50;103278.88;5047212;28;20052;-45
2021/04/13 05:58:08;;;;;;;7.90;0.90;;;;;;;5.30;67.11;103280.19;5037033;28;20061;-45
2021/04/13 06:00:36;;;;;;;7.82;1.13;;;;;;;5.32;67.06;103279.97;5037452;28;20454;-50
2021/04/13 06:03:03;;;;;;;6.07;0.90;;;;;;;5.34;66.70;103280.63;5046113;28;20063;-47
2021/04/13 06:05:32;;;;;;;5.22;0.70;;;;;;;5.34;66.55;103281.50;5046578;28;20111;-45
2021/04/13 06:07:59;;;;;;;8.85;0.93;;;;;;;5.34;66.56;103280.63;5040872;28;20103;-45
2021/04/13 06:10:27;;;;;;;8.20;0.80;;;;;;;5.37;66.52;103280.22;5036968;28;20399;-49
2021/04/13 06:12:56;;;;;;;8.48;1.38;;;;;;;5.43;66.71;103282.16;5041803;28;20103;-50
2021/04/13 06:15:24;;;;;;;8.27;1.00;;;;;;;5.52;66.40;103290.09;5040698;28;20052;-52
2021/04/13 06:17:52;;;;;;;5.68;0.80;;;;;;;5.61;65.38;103285.22;5040845;28;20065;-48
2021/04/13 06:20:22;;;;;;;3.92;0.80;;;;;;;5.68;64.60;103291.66;5049795;28;20527;-46
2021/04/13 06:22:50;;;;;;;5.78;0.88;;;;;;;5.79;64.53;103290.22;5043432;28;20041;-47
2021/04/13 06:25:17;;;;;;;10.00;1.10;;;;;;;5.92;64.08;103292.19;5032787;28;20464;-47
2021/04/13 06:27:44;;;;;;;3.78;0.85;;;;;;;6.08;64.18;103294.56;5046280;28;20049;-47
2021/04/13 06:30:13;;;;;;;8.73;1.00;;;;;;;6.24;64.10;103296.94;5032048;28;20053;-46
2021/04/13 06:32:40;;;;;;;6.65;0.85;;;;;;;6.38;63.79;103307.00;5038436;28;20077;-47
2021/04/13 06:35:09;;;;;;;4.40;0.70;;;;;;;6.45;63.31;103309.78;5052004;28;20045;-48
2021/04/13 06:37:40;;;;;;;4.57;0.70;;;;;;;6.53;63.02;103302.09;5036659;28;20440;-48
2021/04/13 06:40:10;;;;;;;6.47;0.80;;;;;;;6.64;62.82;103306.16;5028263;28;20049;-46
2021/04/13 06:42:53;;;;;;;5.70;0.70;;;;;;;6.81;62.87;103301.88;5043008;28;20072;-46
2021/04/13 06:45:28;;;;;;;5.53;0.80;;;;;;;6.95;62.78;103310.22;5032028;28;20051;-46
2021/04/13 06:48:33;;;;;;;5.05;0.70;;;;;;;6.99;62.52;103304.03;5043671;28;20049;-47
2021/04/13 06:51:11;;;;;;;3.80;0.70;;;;;;;6.86;61.94;103315.13;5032027;28;20452;-44
2021/04/13 06:53:54;;;;;;;2.58;0.70;;;;;;;6.90;61.85;103311.69;5046118;28;20049;-46
2021/04/13 06:57:02;;;;;;;8.77;1.10;;;;;;;7.07;61.45;103312.09;5031067;28;20053;-49
2021/04/13 06:59:55;;;;;;;2.28;0.55;;;;;;;7.22;60.65;103309.94;5038122;28;20048;-46
2021/04/13 07:02:29;;;;;;;3.25;0.60;;;;;;;7.35;60.71;103313.78;5044915;28;20045;-49
2021/04/13 07:05:01;;;;;;;7.03;0.90;;;;;;;7.51;60.56;103313.28;5042154;28;20076;-49
2021/04/13 07:07:35;;;;;;;5.65;0.57;;;;;;;7.67;59.96;103312.78;5044444;28;20491;-49
2021/04/13 07:10:12;;;;;;;4.28;0.90;;;;;;;7.80;59.61;103312.72;5037434;28;20053;-47
2021/04/13 07:12:43;;;;;;;4.63;0.60;;;;;;;7.92;59.25;103313.75;5036235;28;20147;-46
2021/04/13 07:15:15;;;;;;;3.80;0.68;;;;;;;8.08;59.17;103317.09;5043324;28;20140;-51
2021/04/13 07:17:46;;;;;;;9.45;1.55;;;;;;;8.27;59.12;103314.19;5046218;28;20042;-50
2021/04/13 07:20:16;;;;;;;6.45;1.05;;;;;;;8.53;59.38;103320.69;5041035;28;20073;-50
2021/04/13 07:22:52;;;;;;;4.68;0.80;;;;;;;8.76;58.88;103323.72;5034603;28;20103;-53
2021/04/13 07:25:22;;;;;;;6.40;0.90;;;;;;;8.81;58.23;103325.78;5040704;28;20052;-47
2021/04/13 07:27:54;;;;;;;7.13;1.00;;;;;;;8.77;58.17;103325.44;5048836;28;20052;-49
2021/04/13 07:30:25;;;;;;;6.28;0.93;;;;;;;8.80;57.45;103329.66;5039243;28;20056;-47
2021/04/13 07:32:54;;;;;;;4.65;0.73;;;;;;;8.87;58.02;103324.91;5047974;28;20050;-49
2021/04/13 07:35:23;;;;;;;5.32;0.82;;;;;;;8.93;57.25;103321.22;5042285;28;20061;-50
2021/04/13 07:37:52;;;;;;;4.10;0.80;;;;;;;9.04;57.06;103320.44;5043480;28;20099;-50
2021/04/13 07:40:22;;;;;;;4.03;0.88;;;;;;;9.17;56.76;103325.06;5047463;28;20079;-49
2021/04/13 07:42:56;;;;;;;9.52;1.10;;;;;;;9.33;56.74;103324.47;5049942;28;20041;-49
2021/04/13 07:45:30;;;;;;;5.53;0.88;;;;;;;9.48;55.59;103326.88;5045551;28;20045;-46
2021/04/13 07:48:30;;;;;;;5.85;0.75;;;;;;;9.52;55.06;103325.31;5031637;28;20487;-45
2021/04/13 07:51:08;;;;;;;7.30;1.10;;;;;;;9.62;55.83;103334.81;5045137;28;20063;-47
2021/04/13 07:53:48;;;;;;;5.10;0.70;;;;;;;9.76;55.04;103335.53;5047557;28;20052;-46
2021/04/13 07:56:26;;;;;;;4.65;0.68;;;;;;;9.89;54.57;103329.78;5041748;28;20049;-48
2021/04/13 07:58:58;;;;;;;3.63;0.80;;;;;;;10.03;54.65;103333.25;5033963;28;20049;-49
2021/04/13 08:01:26;;;;;;;4.88;1.10;;;;;;;10.17;54.26;103336.72;5039428;28;20041;-47
2021/04/13 08:03:53;;;;;;;6.40;0.90;;;;;;;10.32;54.36;103339.97;5047673;28;20037;-48
2021/04/13 08:06:48;;;;;;;5.43;0.70;;;;;;;10.53;53.16;103339.44;5041079;28;20068;-50
2021/04/13 08:09:36;;;;;;;7.88;1.15;;;;;;;10.55;54.01;103342.84;4999649;28;20525;-49
2021/04/13 08:12:20;;;;;;;9.57;1.10;;;;;;;10.60;53.48;103342.94;5021390;28;20576;-48
2021/04/13 08:14:50;;;;;;;5.35;0.88;;;;;;;10.79;53.95;103348.50;5030721;28;20045;-51
2021/04/13 08:17:21;;;;;;;6.68;1.00;;;;;;;11.10;53.37;103347.28;5026513;28;20061;-48
2021/04/13 08:19:59;;;;;;;5.28;1.00;;;;;;;11.37;52.17;103354.13;5028543;28;20073;-47
2021/04/13 08:22:28;;;;;;;6.93;0.80;;;;;;;11.35;52.06;103354.34;5023142;28;20096;-50
2021/04/13 08:24:58;;;;;;;4.13;0.80;;;;;;;11.52;51.70;103354.47;5019132;28;20049;-48
2021/04/13 08:27:47;;;;;;;5.70;1.00;;;;;;;11.93;50.12;103353.44;5023146;28;20407;-48
2021/04/13 08:30:44;;;;;;;4.50;0.80;;;;;;;12.33;48.87;103344.19;5029019;28;20466;-48
2021/04/13 08:33:26;;;;;;;6.93;0.80;;;;;;;12.66;48.80;103351.78;5018893;28;20056;-47
2021/04/13 08:36:06;;;;;;;5.82;1.00;;;;;;;12.83;48.28;103349.84;5019366;28;20046;-49
2021/04/13 08:38:58;;;;;;;4.85;0.82;;;;;;;12.79;46.57;103350.63;5030633;28;20037;-48
2021/04/13 08:41:40;;;;;;;8.53;0.87;;;;;;;12.90;47.85;103352.50;5019053;28;20060;-50
2021/04/13 08:44:25;;;;;;;7.13;1.00;;;;;;;13.09;46.95;103351.97;5034107;28;20049;-45
2021/04/13 08:47:00;;;;;;;6.57;1.00;;;;;;;13.28;47.20;103360.16;5028230;28;20091;-46
2021/04/13 08:49:40;;;;;;;6.68;1.27;;;;;;;13.24;46.08;103359.81;5014230;28;20042;-45
2021/04/13 08:52:28;;;;;;;6.25;1.05;;;;;;;13.43;47.12;103366.00;5026700;28;20111;-47
2021/04/13 08:55:04;;;;;;;3.83;0.90;;;;;;;13.67;46.50;103370.28;5013793;28;20159;-47
2021/04/13 08:57:36;;;;;;;5.13;0.75;;;;;;;13.87;46.24;103363.25;5027060;28;20134;-51
2021/04/13 09:00:24;;;;;;;5.20;0.67;;;;;;;13.91;46.34;103370.06;5014197;28;20041;-48
2021/04/13 09:02:57;;;;;;;6.68;0.82;;;;;;;14.05;45.82;103366.59;5022345;28;20288;-46
2021/04/13 09:05:26;;;;;;;5.22;1.00;;;;;;;14.12;45.21;103366.41;5033785;28;20053;-50
2021/04/13 09:07:58;;;;;;;4.68;1.35;;;;;;;14.23;45.00;103365.41;5025707;28;20463;-48
2021/04/13 09:10:31;;;;;;;5.50;0.70;;;;;;;14.42;44.62;103368.72;5013743;28;20057;-49
2021/04/13 09:13:26;;;;;;;4.32;1.20;;;;;;;14.48;43.51;103364.88;5019585;28;20116;-48
2021/04/13 09:16:10;;;;;;;4.63;0.93;;;;;;;14.61;42.47;103372.88;5018599;28;20100;-47
2021/04/13 09:18:49;;;;;;;7.05;0.80;;;;;;;14.76;43.51;103367.44;5030036;28;20474;-49
2021/04/13 09:21:33;;;;;;;4.65;1.25;;;;;;;14.90;41.87;103370.63;5031583;28;20060;-51
2021/04/13 09:24:09;;;;;;;3.50;0.60;;;;;;;15.00;42.02;103364.25;5031624;28;20137;-46
2021/04/13 09:26:45;;;;;;;4.38;0.70;;;;;;;14.89;41.59;103376.53;5030598;28;20053;-47
2021/04/13 09:32:06;;;;;;;5.15;1.00;;;;;;;15.21;42.49;103374.53;5129142;27;20349;-48
2021/04/13 09:35:00;;;;;;;5.65;1.00;;;;;;;15.48;40.69;103375.31;5118256;28;20065;-51
2021/04/13 09:37:41;;;;;;;3.88;0.90;;;;;;;15.74;41.83;103378.34;5128441;27;20043;-47
2021/04/13 09:40:24;;;;;;;3.97;0.70;;;;;;;16.08;40.00;103379.63;5129311;28;20096;-51
2021/04/13 09:43:10;;;;;;;6.95;1.30;;;;;;;16.32;40.07;103376.34;5128404;27;20044;-48
2021/04/13 09:45:48;;;;;;;6.97;1.40;;;;;;;16.44;40.13;103377.75;5129092;28;20050;-49
2021/04/13 09:48:38;;;;;;;6.95;0.85;;;;;;;16.73;38.75;103374.50;5128685;28;20446;-51
2021/04/13 09:51:18;;;;;;;5.07;0.90;;;;;;;16.88;38.29;103371.69;5128396;27;20499;-48
2021/04/13 09:54:19;;;;;;;4.57;0.70;;;;;;;16.91;37.80;103376.75;5128923;28;20416;-49
2021/04/13 09:57:02;;;;;;;3.90;0.73;;;;;;;16.96;37.78;103373.09;5129071;28;20082;-51
2021/04/13 09:59:57;;;;;;;5.43;1.02;;;;;;;17.03;36.66;103376.47;5128676;28;20134;-50
2021/04/13 10:02:59;;;;;;;3.75;0.70;;;;;;;17.22;37.50;103372.81;5128492;27;20051;-52
2021/04/13 10:05:30;;;;;;;6.72;1.00;;;;;;;17.34;38.30;103378.19;5127577;28;20040;-48
2021/04/13 10:07:59;;;;;;;5.32;0.95;;;;;;;17.60;38.16;103378.09;5128366;28;20108;-49
2021/04/13 10:10:34;;;;;;;4.97;1.45;;;;;;;17.71;36.63;103375.03;5128458;28;20134;-50
2021/04/13 10:13:48;;;;;;;5.07;0.70;;;;;;;17.81;35.62;103369.34;5128282;28;20415;-51
2021/04/13 10:16:30;;;;;;;5.07;0.70;;;;;;;17.85;34.74;103375.25;5127681;28;20047;-49
2021/04/13 10:19:16;;;;;;;3.27;0.67;;;;;;;17.69;36.17;103370.78;5127612;28;20410;-47
2021/04/13 10:22:27;;;;;;;6.53;1.02;;;;;;;17.76;34.74;103363.72;5115457;28;20043;-47
2021/04/13 10:25:15;;;;;;;6.30;1.17;;;;;;;17.76;35.98;103371.34;5127415;27;20051;-48
2021/04/13 10:28:19;;;;;;;7.28;1.05;;;;;;;17.88;35.25;103361.41;5107786;28;20051;-50
2021/04/13 10:31:16;;;;;;;6.47;0.90;;;;;;;18.30;34.73;103362.06;5127570;27;20083;-48
2021/04/13 10:34:39;;;;;;;3.35;0.80;;;;;;;18.64;33.80;103365.84;5127229;28;20055;-47
2021/04/13 10:37:23;;;;;;;6.32;1.10;;;;;;;18.55;34.55;103361.94;5091416;28;20101;-51
2021/04/13 10:40:08;;;;;;;4.00;0.80;;;;;;;18.44;34.59;103366.78;5127159;28;20404;-48
2021/04/13 10:43:21;;;;;;;4.30;0.98;;;;;;;18.37;34.05;103371.09;5119142;27;20039;-46
2021/04/13 10:46:06;;;;;;;4.18;0.90;;;;;;;18.31;34.22;103363.78;5113649;28;20458;-47
2021/04/13 10:49:32;;;;;;;6.10;1.10;;;;;;;18.25;32.56;103363.78;5093812;28;20059;-50
2021/04/13 10:52:20;;;;;;;4.88;1.05;;;;;;;18.39;34.70;103365.97;5113139;28;20043;-51
2021/04/13 10:55:14;;;;;;;7.07;0.95;;;;;;;18.46;34.69;103369.34;5112441;28;20055;-49
2021/04/13 10:58:07;;;;;;;7.40;1.20;;;;;;;18.50;34.13;103367.63;5085512;28;20589;-50
2021/04/13 11:00:41;;;;;;;5.55;0.90;;;;;;;18.48;34.87;103372.72;5112791;28;20039;-50
2021/04/13 11:03:53;;;;;;;5.07;0.95;;;;;;;18.32;33.21;103373.94;5113858;28;20102;-47
2021/04/13 11:07:20;;;;;;;5.65;0.88;;;;;;;18.13;33.84;103365.28;5113737;28;20105;-46
2021/04/13 11:10:20;;;;;;;4.88;1.15;;;;;;;18.11;34.63;103368.38;5094941;28;20098;-46
2021/04/13 11:13:25;;;;;;;5.20;1.02;;;;;;;17.77;32.95;103362.59;5113408;28;20512;-49
2021/04/13 11:16:30;;;;;;;6.15;1.00;;;;;;;17.38;35.43;103353.91;5110574;28;20520;-51
2021/04/13 11:19:24;;;;;;;4.85;1.10;;;;;;;17.31;36.01;103361.81;5113459;28;20052;-50
2021/04/13 11:22:24;;;;;;;6.55;1.30;;;;;;;17.11;36.66;103351.38;5112566;28;20105;-49
2021/04/13 11:25:17;;;;;;;5.88;1.10;;;;;;;16.79;35.96;103359.25;5070144;28;20052;-51
2021/04/13 11:28:28;;;;;;;4.10;0.80;;;;;;;16.62;35.56;103353.84;5097428;28;20059;-51
2021/04/13 11:31:38;;;;;;;6.82;0.82;;;;;;;16.18;37.52;103362.78;5112327;28;20039;-51
2021/04/13 11:34:20;;;;;;;5.72;0.93;;;;;;;16.20;37.68;103357.69;5107245;28;20051;-47
2021/04/13 11:37:06;;;;;;;4.45;0.80;;;;;;;16.09;36.28;103358.78;5112236;28;20044;-49
2021/04/13 11:39:39;;;;;;;4.90;0.80;;;;;;;15.70;38.26;103354.66;5113129;28;20139;-50
2021/04/13 11:42:16;;;;;;;5.57;0.88;;;;;;;15.66;37.44;103359.97;5112356;28;20504;-50
2021/04/13 11:44:51;;;;;;;4.55;1.10;;;;;;;15.60;38.85;103355.44;5112832;28;20047;-46
2021/04/13 11:47:27;;;;;;;7.65;1.00;;;;;;;15.55;38.24;103355.38;5112846;28;20036;-49
2021/04/13 11:49:58;;;;;;;4.00;0.70;;;;;;;15.50;38.84;103352.53;5094440;28;20442;-48
2021/04/13 11:52:33;;;;;;;5.55;0.75;;;;;;;15.36;39.16;103357.81;5112748;28;20052;-50
2021/04/13 11:55:01;;;;;;;5.03;0.80;;;;;;;15.40;39.98;103361.75;5111912;28;20063;-49
2021/04/13 11:57:30;;;;;;;4.80;0.73;;;;;;;15.47;39.75;103359.53;5111705;28;20100;-48
2021/04/13 12:00:28;;;;;;;5.30;0.90;;;;;;;15.42;38.94;103358.66;5112302;28;20550;-47
2021/04/13 12:03:04;;;;;;;3.63;0.73;;;;;;;14.94;39.99;103352.13;5108997;28;20043;-50
2021/04/13 12:05:41;;;;;;;6.90;1.05;;;;;;;14.70;40.97;103353.56;5109938;28;20123;-48
2021/04/13 12:08:38;;;;;;;5.22;0.90;;;;;;;14.74;40.78;103358.41;5107253;28;20043;-47
2021/04/13 12:11:07;;;;;;;4.93;0.82;;;;;;;14.68;41.58;103356.66;5110069;28;20055;-48
2021/04/13 12:13:38;;;;;;;3.78;0.90;;;;;;;14.60;41.69;103354.31;5106606;28;20179;-47
2021/04/13 12:16:06;;;;;;;6.65;0.90;;;;;;;14.55;41.17;103351.47;5109228;28;20549;-48